sensor_id;sensor_type;location;lat;lon;timestamp;pressure;altitude;pressure_sealevel;temperature;humidity
29045;BME280;16133;49.486;12.176;2022-12-18T00:00:26;98732.13;;;-8.78;100.00
29045;BME280;16133;49.486;12.176;2022-12-18T00:02:51;98709.09;;;-8.82;100.00
29045;BME280;16133;49.486;12.176;2022-12-18T00:05:17;98726.81;;;-8.68;100.00
29045;BME280;16133;49.486;12.176;2022-12-18T00:07:42;98731.84;;;-8.62;100.00
29045;BME280;16133;49.486;12.176;2022-12-18T00:10:07;98719.88;;;-8.65;100.00
29045;BME280;16133;49.486;12.176;2022-12-18T00:12:33;98703.69;;;-8.70;100.00
29045;BME280;16133;49.486;12.176;2022-12-18T00:14:58;98693.41;;;-8.70;100.00
29045;BME280;16133;49.486;12.176;2022-12-18T00:17:24;98729.84;;;-8.50;100.00
29045;BME280;16133;49.486;12.176;2022-12-18T00:19:50;98724.59;;;-8.44;100.00
29045;BME280;16133;49.486;12.176;2022-12-18T00:22:15;98723.69;;;-8.41;100.00
29045;BME280;16133;49.486;12.176;2022-12-18T00:24:40;98671.13;;;-8.71;100.00
29045;BME280;16133;49.486;12.176;2022-12-18T00:27:05;98695.66;;;-8.55;100.00
29045;BME280;16133;49.486;12.176;2022-12-18T00:29:31;98724.59;;;-8.44;100.00
29045;BME280;16133;49.486;12.176;2022-12-18T00:31:56;98681.19;;;-8.59;100.00
29045;BME280;16133;49.486;12.176;2022-12-18T00:34:21;98732.06;;;-8.32;100.00
29045;BME280;16133;49.486;12.176;2022-12-18T00:36:47;98702.28;;;-8.43;100.00
29045;BME280;16133;49.486;12.176;2022-12-18T00:39:13;98707.31;;;-8.39;100.00
29045;BME280;16133;49.486;12.176;2022-12-18T00:41:38;98632.66;;;-8.77;100.00
29045;BME280;16133;49.486;12.176;2022-12-18T00:44:22;98729.25;;;-8.23;100.00
29045;BME280;16133;49.486;12.176;2022-12-18T00:46:47;98690.28;;;-8.44;100.00
29045;BME280;16133;49.486;12.176;2022-12-18T00:49:14;98732.59;;;-8.19;100.00
29045;BME280;16133;49.486;12.176;2022-12-18T00:51:39;98743.69;;;-8.15;100.00
29045;BME280;16133;49.486;12.176;2022-12-18T00:54:05;98753.81;;;-8.06;100.00
29045;BME280;16133;49.486;12.176;2022-12-18T00:56:30;98687.56;;;-8.37;100.00
29045;BME280;16133;49.486;12.176;2022-12-18T00:58:56;98704.34;;;-8.20;100.00
29045;BME280;16133;49.486;12.176;2022-12-18T01:01:24;98743.25;;;-7.94;100.00
29045;BME280;16133;49.486;12.176;2022-12-18T01:03:49;98740.56;;;-7.90;100.00
29045;BME280;16133;49.486;12.176;2022-12-18T01:06:16;98741.28;;;-7.85;100.00
29045;BME280;16133;49.486;12.176;2022-12-18T01:08:44;98731.06;;;-7.88;100.00
29045;BME280;16133;49.486;12.176;2022-12-18T01:11:15;98750.63;;;-7.79;100.00
29045;BME280;16133;49.486;12.176;2022-12-18T01:13:41;98704.81;;;-8.03;100.00
29045;BME280;16133;49.486;12.176;2022-12-18T01:16:07;98664.22;;;-8.29;100.00
29045;BME280;16133;49.486;12.176;2022-12-18T01:18:33;98635.31;;;-8.40;100.00
29045;BME280;16133;49.486;12.176;2022-12-18T01:20:59;98664.88;;;-8.21;100.00
29045;BME280;16133;49.486;12.176;2022-12-18T01:23:24;98733.47;;;-7.82;100.00
29045;BME280;16133;49.486;12.176;2022-12-18T01:25:50;98758.88;;;-7.65;100.00
29045;BME280;16133;49.486;12.176;2022-12-18T01:28:15;98760.06;;;-7.78;100.00
29045;BME280;16133;49.486;12.176;2022-12-18T01:30:40;98658.72;;;-8.15;100.00
29045;BME280;16133;49.486;12.176;2022-12-18T01:33:06;98762.16;;;-7.58;100.00
29045;BME280;16133;49.486;12.176;2022-12-18T01:35:31;98720.75;;;-7.86;100.00
29045;BME280;16133;49.486;12.176;2022-12-18T01:37:56;98774.06;;;-7.54;100.00
29045;BME280;16133;49.486;12.176;2022-12-18T01:40:22;98728.38;;;-7.83;100.00
29045;BME280;16133;49.486;12.176;2022-12-18T01:42:52;98773.19;;;-7.52;100.00
29045;BME280;16133;49.486;12.176;2022-12-18T01:47:45;98778.19;;;-7.47;100.00
29045;BME280;16133;49.486;12.176;2022-12-18T01:50:27;98773.84;;;-7.44;100.00
29045;BME280;16133;49.486;12.176;2022-12-18T01:55:31;98737.16;;;-7.55;100.00
29045;BME280;16133;49.486;12.176;2022-12-18T01:57:59;98771.88;;;-7.34;100.00
29045;BME280;16133;49.486;12.176;2022-12-18T02:00:26;98750.75;;;-7.48;100.00
29045;BME280;16133;49.486;12.176;2022-12-18T02:02:52;98763.28;;;-7.33;100.00
29045;BME280;16133;49.486;12.176;2022-12-18T02:06:09;98751.47;;;-7.43;100.00
29045;BME280;16133;49.486;12.176;2022-12-18T02:10:41;98766.53;;;-7.27;100.00
29045;BME280;16133;49.486;12.176;2022-12-18T02:13:20;98766.53;;;-7.27;100.00
29045;BME280;16133;49.486;12.176;2022-12-18T02:18:42;98754.03;;;-7.42;100.00
29045;BME280;16133;49.486;12.176;2022-12-18T02:21:13;98781.09;;;-7.24;100.00
29045;BME280;16133;49.486;12.176;2022-12-18T02:23:56;98775.16;;;-7.28;100.00
29045;BME280;16133;49.486;12.176;2022-12-18T02:26:33;98782.84;;;-7.24;100.00
29045;BME280;16133;49.486;12.176;2022-12-18T02:29:08;98768.34;;;-7.30;100.00
29045;BME280;16133;49.486;12.176;2022-12-18T02:31:38;98779.34;;;-7.22;100.00
29045;BME280;16133;49.486;12.176;2022-12-18T02:34:05;98773.31;;;-7.21;100.00
29045;BME280;16133;49.486;12.176;2022-12-18T02:36:33;98773.50;;;-7.30;100.00
29045;BME280;16133;49.486;12.176;2022-12-18T02:39:00;98775.81;;;-7.19;100.00
29045;BME280;16133;49.486;12.176;2022-12-18T02:41:26;98775.91;;;-7.22;100.00
29045;BME280;16133;49.486;12.176;2022-12-18T02:44:01;98774.78;;;-7.12;100.00
29045;BME280;16133;49.486;12.176;2022-12-18T02:46:36;98718.91;;;-7.47;100.00
29045;BME280;16133;49.486;12.176;2022-12-18T03:00:21;98746.97;;;-7.34;100.00
29045;BME280;16133;49.486;12.176;2022-12-18T03:03:03;98731.81;;;-7.47;100.00
29045;BME280;16133;49.486;12.176;2022-12-18T03:05:38;98770.13;;;-7.32;100.00
29045;BME280;16133;49.486;12.176;2022-12-18T03:08:18;98782.00;;;-7.25;100.00
29045;BME280;16133;49.486;12.176;2022-12-18T03:10:59;98775.22;;;-7.29;100.00
29045;BME280;16133;49.486;12.176;2022-12-18T03:13:31;98783.66;;;-7.24;100.00
29045;BME280;16133;49.486;12.176;2022-12-18T03:15:58;98764.25;;;-7.39;100.00
29045;BME280;16133;49.486;12.176;2022-12-18T03:18:30;98782.84;;;-7.24;100.00
29045;BME280;16133;49.486;12.176;2022-12-18T03:20:59;98780.47;;;-7.34;100.00
29045;BME280;16133;49.486;12.176;2022-12-18T03:23:30;98777.97;;;-7.37;100.00
29045;BME280;16133;49.486;12.176;2022-12-18T03:26:02;98783.22;;;-7.40;100.00
29045;BME280;16133;49.486;12.176;2022-12-18T03:28:32;98784.16;;;-7.44;100.00
29045;BME280;16133;49.486;12.176;2022-12-18T03:31:00;98783.50;;;-7.52;100.00
29045;BME280;16133;49.486;12.176;2022-12-18T03:33:35;98787.91;;;-7.57;100.00
29045;BME280;16133;49.486;12.176;2022-12-18T03:36:03;98792.44;;;-7.68;100.00
29045;BME280;16133;49.486;12.176;2022-12-18T03:38:28;98792.72;;;-7.80;100.00
29045;BME280;16133;49.486;12.176;2022-12-18T03:41:17;98784.22;;;-7.85;100.00
29045;BME280;16133;49.486;12.176;2022-12-18T03:43:50;98791.94;;;-7.85;100.00
29045;BME280;16133;49.486;12.176;2022-12-18T03:46:33;98786.06;;;-7.90;100.00
29045;BME280;16133;49.486;12.176;2022-12-18T03:49:35;98781.97;;;-7.99;100.00
29045;BME280;16133;49.486;12.176;2022-12-18T03:52:08;98779.47;;;-8.02;100.00
29045;BME280;16133;49.486;12.176;2022-12-18T03:54:35;98792.41;;;-8.05;100.00
29045;BME280;16133;49.486;12.176;2022-12-18T03:57:07;98794.06;;;-8.04;100.00
29045;BME280;16133;49.486;12.176;2022-12-18T03:59:35;98807.00;;;-8.05;100.00
29045;BME280;16133;49.486;12.176;2022-12-18T04:02:04;98816.41;;;-8.04;100.00
29045;BME280;16133;49.486;12.176;2022-12-18T04:04:33;98822.38;;;-8.02;100.00
29045;BME280;16133;49.486;12.176;2022-12-18T04:07:00;98818.94;;;-8.01;100.00
29045;BME280;16133;49.486;12.176;2022-12-18T04:09:27;98813.78;;;-8.01;100.00
29045;BME280;16133;49.486;12.176;2022-12-18T04:11:52;98812.94;;;-8.02;100.00
29045;BME280;16133;49.486;12.176;2022-12-18T04:14:18;98814.69;;;-8.04;100.00
29045;BME280;16133;49.486;12.176;2022-12-18T04:16:43;98825.91;;;-8.06;100.00
29045;BME280;16133;49.486;12.176;2022-12-18T04:19:09;98828.53;;;-8.09;100.00
29045;BME280;16133;49.486;12.176;2022-12-18T04:21:34;98829.41;;;-8.10;100.00
29045;BME280;16133;49.486;12.176;2022-12-18T04:23:59;98821.75;;;-8.13;100.00
29045;BME280;16133;49.486;12.176;2022-12-18T04:26:25;98820.91;;;-8.15;100.00
29045;BME280;16133;49.486;12.176;2022-12-18T04:28:50;98825.22;;;-8.16;100.00
29045;BME280;16133;49.486;12.176;2022-12-18T04:31:15;98815.84;;;-8.20;100.00
29045;BME280;16133;49.486;12.176;2022-12-18T04:33:41;98824.41;;;-8.18;100.00
29045;BME280;16133;49.486;12.176;2022-12-18T04:36:06;98823.53;;;-8.17;100.00
29045;BME280;16133;49.486;12.176;2022-12-18T04:38:32;98821.00;;;-8.18;100.00
29045;BME280;16133;49.486;12.176;2022-12-18T04:40:57;98825.38;;;-8.24;100.00
29045;BME280;16133;49.486;12.176;2022-12-18T04:43:23;98833.06;;;-8.22;100.00
29045;BME280;16133;49.486;12.176;2022-12-18T04:45:48;98840.00;;;-8.26;100.00
29045;BME280;16133;49.486;12.176;2022-12-18T04:48:13;98846.88;;;-8.26;100.00
29045;BME280;16133;49.486;12.176;2022-12-18T04:50:39;98841.75;;;-8.28;100.00
29045;BME280;16133;49.486;12.176;2022-12-18T04:53:04;98846.88;;;-8.25;100.00
29045;BME280;16133;49.486;12.176;2022-12-18T04:55:30;98851.19;;;-8.27;100.00
29045;BME280;16133;49.486;12.176;2022-12-18T04:57:55;98857.28;;;-8.29;100.00
29045;BME280;16133;49.486;12.176;2022-12-18T05:00:21;98857.28;;;-8.31;100.00
29045;BME280;16133;49.486;12.176;2022-12-18T05:02:47;98853.91;;;-8.33;100.00
29045;BME280;16133;49.486;12.176;2022-12-18T05:05:12;98856.56;;;-8.36;100.00
29045;BME280;16133;49.486;12.176;2022-12-18T05:07:38;98853.22;;;-8.41;100.00
29045;BME280;16133;49.486;12.176;2022-12-18T05:10:03;98859.28;;;-8.43;100.00
29045;BME280;16133;49.486;12.176;2022-12-18T05:12:30;98850.69;;;-8.44;100.00
29045;BME280;16133;49.486;12.176;2022-12-18T05:14:56;98852.50;;;-8.49;100.00
29045;BME280;16133;49.486;12.176;2022-12-18T05:17:21;98850.91;;;-8.56;100.00
29045;BME280;16133;49.486;12.176;2022-12-18T05:19:47;98853.69;;;-8.66;100.00
29045;BME280;16133;49.486;12.176;2022-12-18T05:22:12;98857.97;;;-8.67;100.00
29045;BME280;16133;49.486;12.176;2022-12-18T05:24:37;98859.78;;;-8.72;100.00
29045;BME280;16133;49.486;12.176;2022-12-18T05:27:03;98865.84;;;-8.76;100.00
29045;BME280;16133;49.486;12.176;2022-12-18T05:29:28;98864.78;;;-8.66;100.00
29045;BME280;16133;49.486;12.176;2022-12-18T05:31:54;98866.75;;;-8.80;100.00
29045;BME280;16133;49.486;12.176;2022-12-18T05:34:19;98866.94;;;-8.89;100.00
29045;BME280;16133;49.486;12.176;2022-12-18T05:36:44;98860.16;;;-8.96;100.00
29045;BME280;16133;49.486;12.176;2022-12-18T05:39:10;98865.31;;;-8.96;100.00
29045;BME280;16133;49.486;12.176;2022-12-18T05:41:35;98867.00;;;-8.94;100.00
29045;BME280;16133;49.486;12.176;2022-12-18T05:44:00;98863.59;;;-8.94;100.00
29045;BME280;16133;49.486;12.176;2022-12-18T05:46:26;98854.28;;;-9.03;100.00
29045;BME280;16133;49.486;12.176;2022-12-18T05:48:52;98856.94;;;-9.07;100.00
29045;BME280;16133;49.486;12.176;2022-12-18T05:51:20;98862.84;;;-9.02;100.00
29045;BME280;16133;49.486;12.176;2022-12-18T05:53:46;98869.66;;;-9.00;100.00
29045;BME280;16133;49.486;12.176;2022-12-18T05:56:16;98869.66;;;-9.00;100.00
29045;BME280;16133;49.486;12.176;2022-12-18T05:58:43;98862.78;;;-8.98;100.00
29045;BME280;16133;49.486;12.176;2022-12-18T06:01:11;98860.22;;;-8.98;100.00
29045;BME280;16133;49.486;12.176;2022-12-18T06:03:36;98873.94;;;-9.00;100.00
29045;BME280;16133;49.486;12.176;2022-12-18T06:06:02;98876.50;;;-8.99;100.00
29045;BME280;16133;49.486;12.176;2022-12-18T06:08:28;98877.34;;;-8.97;100.00
29045;BME280;16133;49.486;12.176;2022-12-18T06:10:53;98874.72;;;-8.94;100.00
29045;BME280;16133;49.486;12.176;2022-12-18T06:13:20;98880.72;;;-8.93;100.00
29045;BME280;16133;49.486;12.176;2022-12-18T06:15:46;98884.94;;;-8.91;100.00
29045;BME280;16133;49.486;12.176;2022-12-18T06:18:11;98888.44;;;-8.95;100.00
29045;BME280;16133;49.486;12.176;2022-12-18T06:20:37;98894.50;;;-8.97;100.00
29045;BME280;16133;49.486;12.176;2022-12-18T06:23:05;98884.22;;;-9.00;100.00
29045;BME280;16133;49.486;12.176;2022-12-18T06:25:30;98886.09;;;-9.08;100.00
29045;BME280;16133;49.486;12.176;2022-12-18T06:27:56;98884.34;;;-9.06;100.00
29045;BME280;16133;49.486;12.176;2022-12-18T06:30:21;98886.91;;;-9.06;100.00
29045;BME280;16133;49.486;12.176;2022-12-18T06:32:48;98896.34;;;-9.05;100.00
29045;BME280;16133;49.486;12.176;2022-12-18T06:35:14;98889.44;;;-9.03;100.00
29045;BME280;16133;49.486;12.176;2022-12-18T06:37:39;98909.06;;;-8.99;100.00
29045;BME280;16133;49.486;12.176;2022-12-18T06:40:05;98910.84;;;-9.01;100.00
29045;BME280;16133;49.486;12.176;2022-12-18T06:42:31;98906.56;;;-9.04;100.00
29045;BME280;16133;49.486;12.176;2022-12-18T06:44:57;98899.66;;;-9.00;100.00
29045;BME280;16133;49.486;12.176;2022-12-18T06:47:22;98908.34;;;-9.07;100.00
29045;BME280;16133;49.486;12.176;2022-12-18T06:49:48;98915.19;;;-9.05;100.00
29045;BME280;16133;49.486;12.176;2022-12-18T06:52:13;98908.63;;;-9.26;100.00
29045;BME280;16133;49.486;12.176;2022-12-18T06:54:39;98917.19;;;-9.27;100.00
29045;BME280;16133;49.486;12.176;2022-12-18T06:57:04;98915.47;;;-9.25;100.00
29045;BME280;16133;49.486;12.176;2022-12-18T06:59:30;98915.59;;;-9.34;100.00
29045;BME280;16133;49.486;12.176;2022-12-18T07:01:55;98921.56;;;-9.32;100.00
29045;BME280;16133;49.486;12.176;2022-12-18T07:04:20;98930.09;;;-9.30;100.00
29045;BME280;16133;49.486;12.176;2022-12-18T07:06:46;98933.28;;;-9.14;100.00
29045;BME280;16133;49.486;12.176;2022-12-18T07:09:11;98943.00;;;-9.34;100.00
29045;BME280;16133;49.486;12.176;2022-12-18T07:11:37;98947.38;;;-9.41;100.00
29045;BME280;16133;49.486;12.176;2022-12-18T07:14:02;98940.53;;;-9.42;100.00
29045;BME280;16133;49.486;12.176;2022-12-18T07:16:27;98942.19;;;-9.36;100.00
29045;BME280;16133;49.486;12.176;2022-12-18T07:18:56;98943.06;;;-9.39;100.00
29045;BME280;16133;49.486;12.176;2022-12-18T07:21:22;98927.56;;;-9.33;100.00
29045;BME280;16133;49.486;12.176;2022-12-18T07:23:48;98922.38;;;-9.30;100.00
29045;BME280;16133;49.486;12.176;2022-12-18T07:26:15;98918.97;;;-9.30;100.00
29045;BME280;16133;49.486;12.176;2022-12-18T07:28:41;98921.53;;;-9.30;100.00
29045;BME280;16133;49.486;12.176;2022-12-18T07:31:11;98924.00;;;-9.23;100.00
29045;BME280;16133;49.486;12.176;2022-12-18T07:33:37;98924.00;;;-9.23;100.00
29045;BME280;16133;49.486;12.176;2022-12-18T07:36:04;98930.72;;;-9.12;100.00
29045;BME280;16133;49.486;12.176;2022-12-18T07:38:31;98937.59;;;-9.14;100.00
29045;BME280;16133;49.486;12.176;2022-12-18T07:41:10;98938.44;;;-9.15;100.00
29045;BME280;16133;49.486;12.176;2022-12-18T07:43:37;98938.50;;;-9.17;100.00
29045;BME280;16133;49.486;12.176;2022-12-18T07:46:03;98939.34;;;-9.16;100.00
29045;BME280;16133;49.486;12.176;2022-12-18T07:48:29;98934.97;;;-9.10;100.00
29045;BME280;16133;49.486;12.176;2022-12-18T07:50:58;98927.25;;;-9.11;100.00
29045;BME280;16133;49.486;12.176;2022-12-18T07:53:23;98942.63;;;-9.07;100.00
29045;BME280;16133;49.486;12.176;2022-12-18T07:55:49;98946.78;;;-8.98;100.00
29045;BME280;16133;49.486;12.176;2022-12-18T07:58:19;98945.06;;;-8.98;100.00
29045;BME280;16133;49.486;12.176;2022-12-18T08:00:44;98952.66;;;-8.90;100.00
29045;BME280;16133;49.486;12.176;2022-12-18T08:03:13;98958.50;;;-8.79;100.00
29045;BME280;16133;49.486;12.176;2022-12-18T08:05:38;98957.75;;;-8.87;100.00
29045;BME280;16133;49.486;12.176;2022-12-18T08:08:04;98968.03;;;-8.86;100.00
29045;BME280;16133;49.486;12.176;2022-12-18T08:10:29;98965.41;;;-8.83;100.00
29045;BME280;16133;49.486;12.176;2022-12-18T08:12:54;98956.78;;;-8.79;100.00
29045;BME280;16133;49.486;12.176;2022-12-18T08:15:20;98964.41;;;-8.74;100.00
29045;BME280;16133;49.486;12.176;2022-12-18T08:17:45;98962.47;;;-8.60;100.00
29045;BME280;16133;49.486;12.176;2022-12-18T08:20:11;98963.53;;;-8.73;100.00
29045;BME280;16133;49.486;12.176;2022-12-18T08:22:39;98961.63;;;-8.60;100.00
29045;BME280;16133;49.486;12.176;2022-12-18T08:25:04;98968.22;;;-8.44;100.00
29045;BME280;16133;49.486;12.176;2022-12-18T08:27:30;98974.34;;;-8.53;100.00
29045;BME280;16133;49.486;12.176;2022-12-18T08:29:56;98970.00;;;-8.49;100.00
29045;BME280;16133;49.486;12.176;2022-12-18T08:32:22;98973.50;;;-8.53;100.00
29045;BME280;16133;49.486;12.176;2022-12-18T08:34:48;98968.28;;;-8.49;100.00
29045;BME280;16133;49.486;12.176;2022-12-18T08:37:13;98978.47;;;-8.41;100.00
29045;BME280;16133;49.486;12.176;2022-12-18T08:39:39;98974.09;;;-8.38;100.00
29045;BME280;16133;49.486;12.176;2022-12-18T08:42:04;98970.56;;;-8.31;100.00
29045;BME280;16133;49.486;12.176;2022-12-18T08:44:48;98977.22;;;-8.20;100.00
29045;BME280;16133;49.486;12.176;2022-12-18T08:47:13;98973.69;;;-8.15;100.00
29045;BME280;16133;49.486;12.176;2022-12-18T08:49:39;98976.13;;;-8.07;100.00
29045;BME280;16133;49.486;12.176;2022-12-18T08:52:04;98965.00;;;-8.09;100.00
29045;BME280;16133;49.486;12.176;2022-12-18T08:54:29;98975.69;;;-7.85;100.00
29045;BME280;16133;49.486;12.176;2022-12-18T08:56:55;98974.44;;;-7.64;100.00
29045;BME280;16133;49.486;12.176;2022-12-18T08:59:20;98974.84;;;-7.42;100.00
29045;BME280;16133;49.486;12.176;2022-12-18T09:01:46;98978.69;;;-7.20;100.00
29045;BME280;16133;49.486;12.176;2022-12-18T09:04:12;98978.25;;;-7.00;100.00
29045;BME280;16133;49.486;12.176;2022-12-18T09:06:39;98983.06;;;-6.85;100.00
29045;BME280;16133;49.486;12.176;2022-12-18T09:09:05;98967.66;;;-6.88;100.00
29045;BME280;16133;49.486;12.176;2022-12-18T09:11:31;98979.44;;;-6.75;100.00
29045;BME280;16133;49.486;12.176;2022-12-18T09:13:58;98987.84;;;-6.67;100.00
29045;BME280;16133;49.486;12.176;2022-12-18T09:16:26;98978.28;;;-6.63;100.00
29045;BME280;16133;49.486;12.176;2022-12-18T09:18:54;98973.81;;;-6.57;100.00
29045;BME280;16133;49.486;12.176;2022-12-18T09:21:25;98978.78;;;-6.48;100.00
29045;BME280;16133;49.486;12.176;2022-12-18T09:23:52;98974.03;;;-6.31;100.00
29045;BME280;16133;49.486;12.176;2022-12-18T09:26:18;98973.47;;;-6.09;100.00
29045;BME280;16133;49.486;12.176;2022-12-18T09:28:44;98976.59;;;-5.97;100.00
29045;BME280;16133;49.486;12.176;2022-12-18T09:31:11;98961.03;;;-5.94;100.00
29045;BME280;16133;49.486;12.176;2022-12-18T09:33:37;98953.84;;;-5.84;100.00
29045;BME280;16133;49.486;12.176;2022-12-18T09:36:05;98957.72;;;-5.68;100.00
29045;BME280;16133;49.486;12.176;2022-12-18T09:38:32;98949.41;;;-5.48;100.00
29045;BME280;16133;49.486;12.176;2022-12-18T09:41:02;98950.59;;;-5.29;100.00
29045;BME280;16133;49.486;12.176;2022-12-18T09:43:36;98950.91;;;-5.12;100.00
29045;BME280;16133;49.486;12.176;2022-12-18T09:46:11;98958.22;;;-4.97;100.00
29045;BME280;16133;49.486;12.176;2022-12-18T09:48:44;98962.03;;;-4.80;100.00
29045;BME280;16133;49.486;12.176;2022-12-18T09:51:18;98958.03;;;-4.63;100.00
29045;BME280;16133;49.486;12.176;2022-12-18T09:53:48;98961.22;;;-4.55;100.00
29045;BME280;16133;49.486;12.176;2022-12-18T09:56:18;98960.06;;;-4.45;100.00
29045;BME280;16133;49.486;12.176;2022-12-18T09:59:01;98952.91;;;-4.38;99.37
29045;BME280;16133;49.486;12.176;2022-12-18T10:01:28;98953.56;;;-4.31;98.56
29045;BME280;16133;49.486;12.176;2022-12-18T10:03:54;98958.31;;;-4.18;98.30
29045;BME280;16133;49.486;12.176;2022-12-18T10:06:33;98950.94;;;-4.05;97.51
29045;BME280;16133;49.486;12.176;2022-12-18T10:12:05;98946.13;;;-3.66;96.83
29045;BME280;16133;49.486;12.176;2022-12-18T10:14:54;98934.19;;;-3.47;95.57
29045;BME280;16133;49.486;12.176;2022-12-18T10:20:10;98933.31;;;-3.71;92.67
29045;BME280;16133;49.486;12.176;2022-12-18T10:27:41;98928.94;;;-3.94;92.78
29045;BME280;16133;49.486;12.176;2022-12-18T10:30:15;98927.88;;;-4.13;92.39
29045;BME280;16133;49.486;12.176;2022-12-18T10:32:41;98925.75;;;-4.26;92.74
29045;BME280;16133;49.486;12.176;2022-12-18T10:35:33;98917.75;;;-4.45;93.31
29045;BME280;16133;49.486;12.176;2022-12-18T10:38:04;98911.81;;;-4.75;93.50
29045;BME280;16133;49.486;12.176;2022-12-18T10:40:30;98914.50;;;-5.06;93.74
29045;BME280;16133;49.486;12.176;2022-12-18T10:43:12;98912.91;;;-5.38;95.30
29045;BME280;16133;49.486;12.176;2022-12-18T10:45:38;98917.97;;;-5.64;97.50
29045;BME280;16133;49.486;12.176;2022-12-18T10:48:04;98907.31;;;-5.83;98.64
29045;BME280;16133;49.486;12.176;2022-12-18T10:50:47;98909.41;;;-5.95;99.67
29045;BME280;16133;49.486;12.176;2022-12-18T10:53:19;98916.63;;;-6.08;100.00
29045;BME280;16133;49.486;12.176;2022-12-18T10:55:46;98915.09;;;-6.15;100.00
29045;BME280;16133;49.486;12.176;2022-12-18T11:01:15;98911.19;;;-6.30;100.00
29045;BME280;16133;49.486;12.176;2022-12-18T11:06:20;98909.59;;;-6.35;100.00
29045;BME280;16133;49.486;12.176;2022-12-18T11:08:59;98911.47;;;-6.40;100.00
29045;BME280;16133;49.486;12.176;2022-12-18T11:11:26;98904.63;;;-6.43;100.00
29045;BME280;16133;49.486;12.176;2022-12-18T11:16:20;98918.50;;;-6.47;100.00
29045;BME280;16133;49.486;12.176;2022-12-18T11:18:46;98902.16;;;-6.47;100.00
29045;BME280;16133;49.486;12.176;2022-12-18T11:21:12;98909.94;;;-6.49;100.00
29045;BME280;16133;49.486;12.176;2022-12-18T11:23:47;98909.94;;;-6.49;100.00
29045;BME280;16133;49.486;12.176;2022-12-18T11:26:14;98906.53;;;-6.51;100.00
29045;BME280;16133;49.486;12.176;2022-12-18T11:28:52;98905.66;;;-6.50;100.00
29045;BME280;16133;49.486;12.176;2022-12-18T11:31:21;98910.81;;;-6.48;100.00
29045;BME280;16133;49.486;12.176;2022-12-18T11:36:18;98895.25;;;-6.47;100.00
29045;BME280;16133;49.486;12.176;2022-12-18T11:38:45;98884.13;;;-6.49;100.00
29045;BME280;16133;49.486;12.176;2022-12-18T11:44:14;98903.00;;;-6.47;100.00
29045;BME280;16133;49.486;12.176;2022-12-18T11:46:49;98897.75;;;-6.44;100.00
29045;BME280;16133;49.486;12.176;2022-12-18T11:49:32;98904.53;;;-6.40;100.00
29045;BME280;16133;49.486;12.176;2022-12-18T11:54:36;98901.84;;;-6.35;100.00
29045;BME280;16133;49.486;12.176;2022-12-18T12:00:11;98910.31;;;-6.28;100.00
29045;BME280;16133;49.486;12.176;2022-12-18T12:02:42;98916.25;;;-6.26;100.00
29045;BME280;16133;49.486;12.176;2022-12-18T12:13:47;98891.81;;;-6.13;100.00
29045;BME280;16133;49.486;12.176;2022-12-18T12:19:12;98892.50;;;-6.07;100.00
29045;BME280;16133;49.486;12.176;2022-12-18T12:21:50;98894.09;;;-6.03;100.00
29045;BME280;16133;49.486;12.176;2022-12-18T12:29:52;98875.75;;;-5.94;100.00
29045;BME280;16133;49.486;12.176;2022-12-18T12:35:35;98866.22;;;-5.92;100.00
29045;BME280;16133;49.486;12.176;2022-12-18T12:40:39;98848.19;;;-5.93;100.00
29045;BME280;16133;49.486;12.176;2022-12-18T12:46:17;98842.03;;;-5.89;100.00
29045;BME280;16133;49.486;12.176;2022-12-18T12:49:00;98838.41;;;-5.84;100.00
29045;BME280;16133;49.486;12.176;2022-12-18T12:51:38;98834.00;;;-5.80;100.00
29045;BME280;16133;49.486;12.176;2022-12-18T12:54:14;98834.84;;;-5.80;100.00
29045;BME280;16133;49.486;12.176;2022-12-18T12:57:33;98827.94;;;-5.79;100.00
29045;BME280;16133;49.486;12.176;2022-12-18T13:05:49;98831.31;;;-5.77;100.00
29045;BME280;16133;49.486;12.176;2022-12-18T13:08:28;98832.06;;;-5.73;100.00
29045;BME280;16133;49.486;12.176;2022-12-18T13:10:54;98837.13;;;-5.70;100.00
29045;BME280;16133;49.486;12.176;2022-12-18T13:13:50;98832.72;;;-5.67;100.00
29045;BME280;16133;49.486;12.176;2022-12-18T13:16:19;98833.47;;;-5.63;100.00
29045;BME280;16133;49.486;12.176;2022-12-18T13:18:52;98840.22;;;-5.58;100.00
29045;BME280;16133;49.486;12.176;2022-12-18T13:21:30;98837.41;;;-5.50;100.00
29045;BME280;16133;49.486;12.176;2022-12-18T13:24:15;98825.97;;;-5.43;100.00
29045;BME280;16133;49.486;12.176;2022-12-18T13:26:45;98836.09;;;-5.36;100.00
29045;BME280;16133;49.486;12.176;2022-12-18T13:29:10;98841.03;;;-5.28;100.00
29045;BME280;16133;49.486;12.176;2022-12-18T13:34:15;98856.91;;;-5.12;100.00
29045;BME280;16133;49.486;12.176;2022-12-18T13:36:41;98860.16;;;-5.06;100.00
29045;BME280;16133;49.486;12.176;2022-12-18T13:41:35;98870.22;;;-4.97;100.00
29045;BME280;16133;49.486;12.176;2022-12-18T13:44:34;98869.25;;;-4.93;100.00
29045;BME280;16133;49.486;12.176;2022-12-18T13:47:02;98864.09;;;-4.94;100.00
29045;BME280;16133;49.486;12.176;2022-12-18T13:49:43;98863.31;;;-4.96;100.00
29045;BME280;16133;49.486;12.176;2022-12-18T13:52:18;98858.25;;;-4.99;100.00
29045;BME280;16133;49.486;12.176;2022-12-18T13:54:47;98863.53;;;-5.02;100.00
29045;BME280;16133;49.486;12.176;2022-12-18T13:57:38;98849.03;;;-5.08;100.00
29045;BME280;16133;49.486;12.176;2022-12-18T14:02:50;98845.88;;;-5.17;100.00
29045;BME280;16133;49.486;12.176;2022-12-18T14:05:30;98840.88;;;-5.23;100.00
29045;BME280;16133;49.486;12.176;2022-12-18T14:08:01;98841.09;;;-5.29;100.00
29045;BME280;16133;49.486;12.176;2022-12-18T14:10:28;98853.28;;;-5.33;100.00
29045;BME280;16133;49.486;12.176;2022-12-18T14:12:53;98848.22;;;-5.38;100.00
29045;BME280;16133;49.486;12.176;2022-12-18T14:17:52;98847.63;;;-5.46;100.00
29045;BME280;16133;49.486;12.176;2022-12-18T14:20:19;98845.19;;;-5.52;100.00
29045;BME280;16133;49.486;12.176;2022-12-18T14:22:47;98860.06;;;-5.58;100.00